X  Sluiten METAR luchtvaart weer gegevens      EHAM Amsterdam Airport Schiphol
Temperatuur
46°F Temperatuur
41°F Dauwpunt
82% Vochtigheid



Wind
17 MPH
27 KM/U
8 M/S
15 KTS



350°
N
Huidig weer

Lichte Buien, Regen Lichte Buien, Regen
Luchtdruk 1023.03 (hPa) - 30.21 (inHg)
Zicht 6 (mijl) - 9.7 (km)
Vliegveld
Vliegveld code EHAM

Locatie : Amsterdam Airport Schiphol
Afstand: 26 (mi)

Metar:
EHAM 201655Z 35015KT 310V040 9999 -SHRA FEW017 FEW022CB SCT025 08/05 Q1023 NOSIG

Tijd: 20-04-2024 18:55 CEST